Time;durP1;ratioP1;P1;durP2;ratioP2;P2;SDS_P1;SDS_P2;PMS_P1;PMS_P2;Temp;Humidity;BMP_temperature;BMP_pressure;BME280_temperature;BME280_humidity;BME280_pressure;Samples;Min_cycle;Max_cycle;Signal;HPM_P1;HPM_P2
2023/10/28 00:00:32;;;;;;;1.70;0.73;;;10.20;55.40;;;;;;4984160;28;46405;-65
2023/10/28 00:02:58;;;;;;;3.30;1.17;;;10.20;55.40;;;;;;4986242;28;46653;-65
2023/10/28 00:05:24;;;;;;;3.47;1.03;;;10.20;55.40;;;;;;4984959;28;45840;-65
2023/10/28 00:07:50;;;;;;;1.50;0.80;;;10.20;55.20;;;;;;4989370;28;46550;-64
2023/10/28 00:10:18;;;;;;;3.53;0.80;;;;;;;;;;4987426;28;47211;-65
2023/10/28 00:12:44;;;;;;;4.03;0.90;;;10.10;55.50;;;;;;4985896;28;46430;-66
2023/10/28 00:15:13;;;;;;;2.37;0.90;;;;;;;;;;4984931;28;46643;-67
2023/10/28 00:17:39;;;;;;;1.80;0.90;;;;;;;;;;4987443;28;46388;-67
2023/10/28 00:20:06;;;;;;;2.30;0.90;;;10.20;56.50;;;;;;4982802;28;47262;-65
2023/10/28 00:22:32;;;;;;;2.70;1.00;;;10.00;56.10;;;;;;4984374;28;46448;-65
2023/10/28 00:24:58;;;;;;;3.17;1.17;;;;;;;;;;4987819;28;46455;-66
2023/10/28 00:27:24;;;;;;;2.67;0.97;;;10.00;55.30;;;;;;4987691;28;46435;-66
2023/10/28 00:29:52;;;;;;;2.47;0.90;;;;;;;;;;4989636;28;47623;-65
2023/10/28 00:32:22;;;;;;;1.57;0.80;;;10.00;55.10;;;;;;4991338;28;46445;-65
2023/10/28 00:34:49;;;;;;;2.67;0.90;;;10.00;55.10;;;;;;4990009;28;46745;-65
2023/10/28 00:37:15;;;;;;;3.30;0.90;;;;;;;;;;4987935;28;46552;-65
2023/10/28 00:39:43;;;;;;;1.60;0.70;;;9.90;61.60;;;;;;4992519;28;47074;-65
2023/10/28 00:42:13;;;;;;;2.50;0.90;;;10.20;59.70;;;;;;4989190;28;46415;-65
2023/10/28 00:44:39;;;;;;;2.10;0.90;;;10.00;55.20;;;;;;4990561;28;46536;-67
2023/10/28 00:47:05;;;;;;;1.50;0.70;;;;;;;;;;4989630;28;46534;-65
2023/10/28 00:49:31;;;;;;;1.50;0.70;;;10.10;63.90;;;;;;4989520;28;47185;-65
2023/10/28 00:51:58;;;;;;;2.27;0.90;;;9.90;56.20;;;;;;4988930;28;46169;-65
2023/10/28 00:54:28;;;;;;;1.70;0.70;;;9.90;56.40;;;;;;4989151;28;46344;-68
2023/10/28 00:56:57;;;;;;;1.43;0.80;;;9.60;57.50;;;;;;4989254;28;45808;-66
2023/10/28 00:59:23;;;;;;;1.87;0.90;;;10.10;58.30;;;;;;4992003;28;46972;-66
2023/10/28 01:01:51;;;;;;;1.90;1.00;;;9.80;60.10;;;;;;4988795;28;45813;-65
2023/10/28 01:04:17;;;;;;;2.70;1.07;;;9.80;57.60;;;;;;4990945;28;46558;-64
2023/10/28 01:06:43;;;;;;;2.40;0.90;;;9.90;56.60;;;;;;4988990;28;46424;-66
2023/10/28 01:09:09;;;;;;;3.60;0.90;;;;;;;;;;4989426;28;46474;-65
2023/10/28 01:11:41;;;;;;;1.47;0.77;;;9.90;56.50;;;;;;4987726;28;46577;-66
2023/10/28 01:14:07;;;;;;;2.00;0.80;;;9.90;57.80;;;;;;4990865;28;45935;-64
2023/10/28 01:16:33;;;;;;;2.23;1.10;;;9.90;56.40;;;;;;4992934;28;46459;-64
2023/10/28 01:19:00;;;;;;;2.73;0.90;;;9.90;56.30;;;;;;4986840;28;46368;-66
2023/10/28 01:21:26;;;;;;;2.07;0.90;;;9.90;56.40;;;;;;4989032;28;46369;-66
2023/10/28 01:23:54;;;;;;;4.13;0.90;;;9.90;56.40;;;;;;4990556;28;46471;-64
2023/10/28 01:26:20;;;;;;;3.30;1.20;;;;;;;;;;4989153;28;46650;-64
2023/10/28 01:28:46;;;;;;;2.30;0.83;;;;;;;;;;4988094;28;46166;-67
2023/10/28 01:31:12;;;;;;;2.00;0.90;;;;;;;;;;4990710;28;45912;-65
2023/10/28 01:33:38;;;;;;;1.83;0.90;;;9.90;56.50;;;;;;4989619;28;46466;-65
2023/10/28 01:36:04;;;;;;;2.00;0.90;;;9.90;56.10;;;;;;4986739;28;46442;-67
2023/10/28 01:38:30;;;;;;;2.40;1.00;;;9.90;56.20;;;;;;4992878;28;47083;-68
2023/10/28 01:40:56;;;;;;;1.70;0.70;;;;;;;;;;5011747;28;46503;-66
2023/10/28 01:43:22;;;;;;;2.23;0.80;;;;;;;;;;4995218;28;45775;-66
2023/10/28 01:45:48;;;;;;;3.20;1.00;;;;;;;;;;4994902;28;46833;-68
2023/10/28 01:48:14;;;;;;;2.07;0.70;;;10.00;54.70;;;;;;4984530;28;46975;-66
2023/10/28 01:50:41;;;;;;;10.40;3.00;;;9.90;56.70;;;;;;4997399;28;46563;-67
2023/10/28 01:53:07;;;;;;;2.83;0.93;;;;;;;;;;5003462;28;46720;-67
2023/10/28 01:55:33;;;;;;;1.80;0.80;;;10.00;54.40;;;;;;4997125;28;46420;-67
2023/10/28 01:57:59;;;;;;;4.07;0.70;;;;;;;;;;4984838;28;47153;-67
2023/10/28 02:00:30;;;;;;;4.60;0.90;;;10.00;54.20;;;;;;4993752;28;46648;-67
2023/10/28 02:02:57;;;;;;;2.90;1.03;;;10.00;54.10;;;;;;5003396;28;46441;-67
2023/10/28 02:05:23;;;;;;;3.40;1.00;;;10.00;53.80;;;;;;5002791;28;46606;-67
2023/10/28 02:07:48;;;;;;;2.13;1.10;;;10.00;53.90;;;;;;4994409;28;46516;-67
2023/10/28 02:10:14;;;;;;;1.70;0.90;;;;;;;;;;4996038;28;46468;-68
2023/10/28 02:12:41;;;;;;;2.87;0.90;;;;;;;;;;5003714;28;46367;-67
2023/10/28 02:15:08;;;;;;;2.33;0.90;;;9.90;55.40;;;;;;5000058;28;46531;-68
2023/10/28 02:17:35;;;;;;;2.33;0.70;;;9.70;55.00;;;;;;5002544;28;47252;-67
2023/10/28 02:20:02;;;;;;;2.30;0.80;;;9.90;54.70;;;;;;4992771;28;46333;-66
2023/10/28 02:22:28;;;;;;;3.23;1.17;;;9.90;55.00;;;;;;5001575;28;46739;-67
2023/10/28 02:24:54;;;;;;;3.30;0.83;;;;;;;;;;4986965;28;46395;-67
2023/10/28 02:27:20;;;;;;;2.53;0.90;;;;;;;;;;4999549;28;46379;-66
2023/10/28 02:29:46;;;;;;;2.50;1.03;;;;;;;;;;5001020;28;46434;-66
2023/10/28 02:32:12;;;;;;;3.20;1.07;;;9.60;55.40;;;;;;5002302;28;46391;-68
2023/10/28 02:34:37;;;;;;;6.20;1.10;;;9.50;56.40;;;;;;4998999;28;46851;-67
2023/10/28 02:37:05;;;;;;;2.87;0.90;;;9.50;56.60;;;;;;4997006;28;47065;-66
2023/10/28 02:39:30;;;;;;;2.57;0.80;;;9.40;56.60;;;;;;4989237;28;46433;-67
2023/10/28 02:41:56;;;;;;;2.20;0.70;;;9.50;55.30;;;;;;4997380;28;45928;-67
2023/10/28 02:44:22;;;;;;;3.60;0.83;;;9.50;56.10;;;;;;4999254;28;46418;-67
2023/10/28 02:46:48;;;;;;;2.20;0.73;;;9.60;55.90;;;;;;4995762;28;47039;-67
2023/10/28 02:49:13;;;;;;;2.57;0.80;;;9.70;55.60;;;;;;5000801;28;46369;-67
2023/10/28 02:51:39;;;;;;;1.70;0.90;;;9.70;55.20;;;;;;4994614;28;46444;-67
2023/10/28 02:54:05;;;;;;;2.70;1.00;;;9.70;53.80;;;;;;5001854;28;46994;-66
2023/10/28 02:56:31;;;;;;;2.73;0.90;;;9.80;54.80;;;;;;4996961;28;46442;-67
2023/10/28 02:58:57;;;;;;;1.97;0.90;;;9.80;54.60;;;;;;5001218;28;46140;-67
2023/10/28 03:01:23;;;;;;;3.57;1.17;;;9.80;54.50;;;;;;4983773;28;46317;-67
2023/10/28 03:03:48;;;;;;;4.40;1.00;;;9.80;53.30;;;;;;4981999;28;46631;-67
2023/10/28 03:06:14;;;;;;;2.97;0.90;;;9.80;54.50;;;;;;4998926;28;46967;-67
2023/10/28 03:08:41;;;;;;;5.07;0.80;;;9.80;54.20;;;;;;4988470;28;46349;-68
2023/10/28 03:11:07;;;;;;;5.60;0.90;;;9.90;54.30;;;;;;5003987;28;46384;-67
2023/10/28 03:13:33;;;;;;;2.50;0.90;;;9.90;53.00;;;;;;4993022;28;46572;-67
2023/10/28 03:15:59;;;;;;;2.77;1.27;;;9.90;53.20;;;;;;4985393;28;46511;-68
2023/10/28 03:18:25;;;;;;;2.27;0.90;;;9.90;53.00;;;;;;4981507;28;46450;-67
2023/10/28 03:20:51;;;;;;;1.90;0.90;;;9.90;53.80;;;;;;4988211;28;46437;-67
2023/10/28 03:23:17;;;;;;;3.83;1.00;;;10.00;51.40;;;;;;4999203;28;46297;-67
2023/10/28 03:25:42;;;;;;;5.37;1.13;;;10.00;52.40;;;;;;4994855;28;47101;-68
2023/10/28 03:28:08;;;;;;;3.30;0.90;;;10.00;51.80;;;;;;4992911;28;46480;-68
2023/10/28 03:30:34;;;;;;;3.73;0.93;;;10.00;51.60;;;;;;4982013;28;46307;-68
2023/10/28 03:33:00;;;;;;;8.00;1.13;;;;;;;;;;4981488;28;46363;-67
2023/10/28 03:35:27;;;;;;;2.33;1.00;;;10.00;50.60;;;;;;4982644;28;46380;-67
2023/10/28 03:37:55;;;;;;;1.73;0.97;;;10.10;51.70;;;;;;5001859;28;46312;-67
2023/10/28 03:40:21;;;;;;;2.27;1.00;;;;;;;;;;5001560;28;46420;-66
2023/10/28 03:42:47;;;;;;;1.63;0.90;;;10.00;50.70;;;;;;5001759;28;46389;-67
2023/10/28 03:45:14;;;;;;;3.80;0.90;;;;;;;;;;5001268;28;46550;-67
2023/10/28 03:47:40;;;;;;;1.50;0.70;;;10.00;50.60;;;;;;5000503;28;45823;-68
2023/10/28 03:50:06;;;;;;;1.90;1.07;;;10.10;51.70;;;;;;4999407;28;46350;-67
2023/10/28 03:52:32;;;;;;;3.30;0.93;;;;;;;;;;5001506;28;46644;-68
2023/10/28 03:54:58;;;;;;;4.73;1.30;;;;;;;;;;5001221;28;46419;-67
2023/10/28 03:57:24;;;;;;;4.93;1.00;;;;;;;;;;5000989;28;46674;-67
2023/10/28 03:59:50;;;;;;;4.63;0.90;;;10.10;50.70;;;;;;5001096;28;46428;-67
2023/10/28 04:02:19;;;;;;;2.53;0.87;;;10.10;50.70;;;;;;5001272;28;46424;-68
2023/10/28 04:04:45;;;;;;;2.90;1.07;;;10.10;50.70;;;;;;4999748;28;49325;-67
2023/10/28 04:07:11;;;;;;;2.63;1.00;;;10.10;51.60;;;;;;5001206;28;46612;-67
2023/10/28 04:09:37;;;;;;;1.97;0.90;;;10.10;51.50;;;;;;5004334;28;46734;-67
2023/10/28 04:12:05;;;;;;;1.80;0.80;;;10.10;50.70;;;;;;5003701;28;46530;-66
2023/10/28 04:14:32;;;;;;;2.07;0.77;;;10.10;51.20;;;;;;5003979;28;46506;-67
2023/10/28 04:16:58;;;;;;;10.00;1.03;;;10.10;51.10;;;;;;5004008;28;46384;-68
2023/10/28 04:19:23;;;;;;;2.37;0.90;;;10.20;50.80;;;;;;5004483;28;46433;-68
2023/10/28 04:21:49;;;;;;;2.60;1.10;;;10.20;50.40;;;;;;4990741;28;46321;-65
2023/10/28 04:24:14;;;;;;;2.33;0.80;;;10.20;49.30;;;;;;4984638;28;45931;-68
2023/10/28 04:26:40;;;;;;;1.90;0.90;;;10.20;50.30;;;;;;4985394;28;46397;-68
2023/10/28 04:29:05;;;;;;;2.63;1.03;;;10.20;50.30;;;;;;5004019;28;45769;-68
2023/10/28 04:31:31;;;;;;;2.80;0.80;;;10.20;50.20;;;;;;5001619;28;46452;-67
2023/10/28 04:33:57;;;;;;;2.47;1.03;;;10.20;49.10;;;;;;4984042;28;46632;-68
2023/10/28 04:36:22;;;;;;;3.47;1.00;;;10.20;50.20;;;;;;4999752;28;45897;-67
2023/10/28 04:38:48;;;;;;;2.20;0.90;;;10.10;50.10;;;;;;5003952;28;46380;-67
2023/10/28 04:41:14;;;;;;;1.87;0.80;;;10.10;50.10;;;;;;5003278;28;46456;-68
2023/10/28 04:43:39;;;;;;;3.20;0.80;;;10.10;49.50;;;;;;4984578;28;46527;-68
2023/10/28 04:46:05;;;;;;;2.10;0.90;;;10.10;50.10;;;;;;4999375;28;45837;-68
2023/10/28 04:48:32;;;;;;;2.00;0.90;;;10.00;50.20;;;;;;5004012;28;46192;-67
2023/10/28 04:50:58;;;;;;;4.77;1.13;;;10.20;50.30;;;;;;5004017;28;46587;-67
2023/10/28 04:53:23;;;;;;;5.70;0.90;;;10.00;48.70;;;;;;5003456;28;46424;-67
2023/10/28 04:55:49;;;;;;;2.77;1.10;;;10.00;49.70;;;;;;4999003;28;46627;-68
2023/10/28 04:58:15;;;;;;;3.73;1.00;;;10.00;48.90;;;;;;5000337;28;46367;-67
2023/10/28 05:00:41;;;;;;;15.80;1.33;;;10.00;49.70;;;;;;4984411;28;46605;-67
2023/10/28 05:03:07;;;;;;;2.40;1.10;;;9.90;49.60;;;;;;5002847;28;46346;-69
2023/10/28 05:05:33;;;;;;;2.83;1.10;;;9.90;50.60;;;;;;4991781;28;45776;-67
2023/10/28 05:07:58;;;;;;;1.97;0.80;;;9.90;49.80;;;;;;4989676;28;45824;-68
2023/10/28 05:10:24;;;;;;;3.97;1.00;;;;;;;;;;4992804;28;46437;-65
2023/10/28 05:12:51;;;;;;;3.00;1.10;;;;;;;;;;4983630;28;46179;-66
2023/10/28 05:15:16;;;;;;;2.00;0.90;;;9.90;49.40;;;;;;4983632;28;45848;-66
2023/10/28 05:17:42;;;;;;;2.97;1.20;;;10.10;48.70;;;;;;4983525;28;46456;-69
2023/10/28 05:20:08;;;;;;;1.60;0.80;;;9.80;49.50;;;;;;4998195;28;46218;-66
2023/10/28 05:22:38;;;;;;;3.03;1.00;;;9.70;49.40;;;;;;4985987;28;47095;-65
2023/10/28 05:25:07;;;;;;;3.60;1.00;;;9.60;50.00;;;;;;4995825;28;46451;-67
2023/10/28 05:27:33;;;;;;;2.30;0.83;;;9.40;50.80;;;;;;5002256;28;46342;-68
2023/10/28 05:29:59;;;;;;;1.60;0.80;;;9.60;51.70;;;;;;4996149;28;46404;-65
2023/10/28 05:32:25;;;;;;;6.50;1.10;;;9.10;50.80;;;;;;5000560;28;46148;-65
2023/10/28 05:34:51;;;;;;;8.20;1.17;;;;;;;;;;4994020;28;46388;-68
2023/10/28 05:37:17;;;;;;;3.80;1.37;;;;;;;;;;5001096;28;46476;-66
2023/10/28 05:39:43;;;;;;;2.80;1.30;;;8.90;50.70;;;;;;5001958;28;46923;-68
2023/10/28 05:42:11;;;;;;;2.90;1.83;;;8.80;51.50;;;;;;5002017;28;46707;-68
2023/10/28 05:44:37;;;;;;;7.30;3.37;;;8.80;51.70;;;;;;5002586;28;46633;-68
2023/10/28 05:47:04;;;;;;;3.90;1.53;;;;;;;;;;5002797;28;46379;-68
2023/10/28 05:49:30;;;;;;;5.10;2.77;;;8.80;50.90;;;;;;5002762;28;46357;-68
2023/10/28 05:51:56;;;;;;;3.53;1.80;;;;;;;;;;5002171;28;47227;-68
2023/10/28 05:54:22;;;;;;;3.77;2.20;;;8.60;51.90;;;;;;5002341;28;46373;-68
2023/10/28 05:56:47;;;;;;;4.23;2.20;;;8.60;52.30;;;;;;5002114;28;46440;-68
2023/10/28 05:59:14;;;;;;;7.27;2.00;;;8.60;51.80;;;;;;5003190;28;46498;-68
2023/10/28 06:01:40;;;;;;;1.83;0.97;;;8.50;51.70;;;;;;5000896;28;49122;-66
2023/10/28 06:04:06;;;;;;;4.57;2.80;;;8.50;51.60;;;;;;5002705;28;46422;-65
2023/10/28 06:06:32;;;;;;;2.30;1.20;;;8.40;52.70;;;;;;5002544;28;46388;-67
2023/10/28 06:08:57;;;;;;;2.33;0.90;;;8.40;52.90;;;;;;5003232;28;46518;-67
2023/10/28 06:11:23;;;;;;;2.90;1.67;;;8.30;53.10;;;;;;5020094;28;46130;-67
2023/10/28 06:13:49;;;;;;;4.77;2.17;;;8.30;52.30;;;;;;5021847;28;46025;-68
2023/10/28 06:16:15;;;;;;;3.00;1.40;;;8.20;53.40;;;;;;5022952;28;46771;-67
2023/10/28 06:18:40;;;;;;;3.43;1.60;;;8.10;52.70;;;;;;5019401;28;46394;-67
2023/10/28 06:21:11;;;;;;;2.23;1.07;;;8.10;53.50;;;;;;5007043;28;46391;-67
2023/10/28 06:23:39;;;;;;;7.40;3.87;;;;;;;;;;4998783;28;46530;-66
2023/10/28 06:26:05;;;;;;;7.60;1.50;;;8.30;52.20;;;;;;5002008;28;45857;-66
2023/10/28 06:28:30;;;;;;;3.77;1.90;;;8.30;53.10;;;;;;5001841;28;46345;-67
2023/10/28 06:30:58;;;;;;;4.13;1.30;;;8.40;53.10;;;;;;5001388;28;46659;-67
2023/10/28 06:33:24;;;;;;;14.63;6.47;;;8.40;51.70;;;;;;5001313;28;46499;-67
2023/10/28 06:35:50;;;;;;;9.67;4.40;;;8.50;52.90;;;;;;5003826;28;46471;-68
2023/10/28 06:38:17;;;;;;;13.60;6.27;;;8.50;52.60;;;;;;5003077;28;45919;-66
2023/10/28 06:40:43;;;;;;;12.10;4.40;;;8.50;52.70;;;;;;4982072;28;47139;-67
2023/10/28 06:43:09;;;;;;;8.50;4.47;;;8.50;51.70;;;;;;4981404;28;45851;-67
2023/10/28 06:45:36;;;;;;;12.20;2.77;;;8.50;52.70;;;;;;4981827;28;46646;-68
2023/10/28 06:48:03;;;;;;;1.73;1.10;;;8.60;52.40;;;;;;4981377;28;46864;-68
2023/10/28 06:50:29;;;;;;;5.50;0.80;;;8.70;52.20;;;;;;4980060;28;48216;-67
2023/10/28 06:52:55;;;;;;;5.00;2.13;;;8.90;50.60;;;;;;4982310;28;46489;-68
2023/10/28 06:55:22;;;;;;;3.30;1.40;;;8.90;51.80;;;;;;4981967;28;46437;-67
2023/10/28 06:57:47;;;;;;;4.90;1.00;;;9.00;51.80;;;;;;4981920;28;46369;-68
2023/10/28 07:00:13;;;;;;;2.20;1.00;;;9.10;51.80;;;;;;4980322;28;46868;-68
2023/10/28 07:02:40;;;;;;;4.07;1.27;;;9.30;51.00;;;;;;4981813;28;45804;-67
2023/10/28 07:05:08;;;;;;;3.63;1.20;;;9.30;52.00;;;;;;4981748;28;46368;-68
2023/10/28 07:07:35;;;;;;;2.23;1.20;;;9.40;51.40;;;;;;4982139;28;46516;-68
2023/10/28 07:10:01;;;;;;;5.33;2.23;;;;;;;;;;4981800;28;47991;-68
2023/10/28 07:12:28;;;;;;;2.50;1.20;;;9.60;50.00;;;;;;4981621;28;46779;-68
2023/10/28 07:14:58;;;;;;;2.27;1.07;;;9.60;52.20;;;;;;4981705;28;46409;-69
2023/10/28 07:17:23;;;;;;;3.83;1.23;;;9.70;49.60;;;;;;4981656;28;46506;-67
2023/10/28 07:19:50;;;;;;;3.23;1.40;;;9.70;50.70;;;;;;4981551;28;46717;-68
2023/10/28 07:22:22;;;;;;;2.03;1.13;;;9.80;49.40;;;;;;4981031;28;46470;-67
2023/10/28 07:24:49;;;;;;;3.33;1.23;;;9.80;50.30;;;;;;4980825;28;46413;-68
2023/10/28 07:27:15;;;;;;;2.67;1.00;;;9.90;50.20;;;;;;4981658;28;45886;-68
2023/10/28 07:29:41;;;;;;;3.03;1.73;;;10.00;49.00;;;;;;4980139;28;47734;-68
2023/10/28 07:32:09;;;;;;;11.90;6.70;;;10.20;48.10;;;;;;4981198;28;46101;-68
2023/10/28 07:34:35;;;;;;;46.17;20.20;;;10.20;48.90;;;;;;4980865;28;46647;-67
2023/10/28 07:37:03;;;;;;;68.27;25.07;;;10.20;48.70;;;;;;4981377;28;46349;-68
2023/10/28 07:39:29;;;;;;;31.00;13.07;;;10.30;48.70;;;;;;4981440;28;46464;-68
2023/10/28 07:41:56;;;;;;;23.13;9.97;;;;;;;;;;4983365;28;45856;-68
2023/10/28 07:44:21;;;;;;;18.17;8.60;;;10.30;47.40;;;;;;4985019;28;46642;-68
2023/10/28 07:46:47;;;;;;;9.23;5.63;;;10.30;48.30;;;;;;4985097;28;46659;-68
2023/10/28 07:49:13;;;;;;;3.00;1.80;;;10.40;48.30;;;;;;4984962;28;46389;-68
2023/10/28 07:51:39;;;;;;;2.50;1.60;;;10.40;48.20;;;;;;4984764;28;46470;-68
2023/10/28 07:54:06;;;;;;;4.80;1.20;;;10.40;46.90;;;;;;4984279;28;46389;-68
2023/10/28 07:56:32;;;;;;;1.83;1.00;;;10.50;48.10;;;;;;4984131;28;46481;-68
2023/10/28 07:59:01;;;;;;;3.47;1.30;;;10.50;48.00;;;;;;4984020;28;46475;-68
2023/10/28 08:01:27;;;;;;;3.53;1.10;;;10.70;47.80;;;;;;4984803;28;46416;-68
2023/10/28 08:03:53;;;;;;;3.37;1.10;;;10.80;46.20;;;;;;4984350;28;45858;-68
2023/10/28 08:06:19;;;;;;;8.27;3.40;;;10.90;47.00;;;;;;4984400;28;46392;-67
2023/10/28 08:08:46;;;;;;;4.13;1.50;;;10.90;46.70;;;;;;4983693;28;47154;-67
2023/10/28 08:11:18;;;;;;;2.77;1.10;;;11.10;46.20;;;;;;4984308;28;46376;-68
2023/10/28 08:13:44;;;;;;;3.73;1.30;;;11.30;44.90;;;;;;4983878;28;46325;-68
2023/10/28 08:16:10;;;;;;;6.53;2.00;;;11.40;45.80;;;;;;4984567;28;46396;-69
2023/10/28 08:18:36;;;;;;;1.70;0.80;;;11.60;45.60;;;;;;4984007;28;46336;-68
2023/10/28 08:21:02;;;;;;;1.90;0.90;;;11.60;45.30;;;;;;4984331;28;46750;-67
2023/10/28 08:23:28;;;;;;;3.50;1.20;;;11.80;43.90;;;;;;4983359;28;46454;-66
2023/10/28 08:25:58;;;;;;;3.60;1.33;;;11.90;45.00;;;;;;4983311;28;46443;-68
2023/10/28 08:28:26;;;;;;;2.27;0.90;;;12.00;44.60;;;;;;4999312;28;46637;-65
2023/10/28 08:30:51;;;;;;;3.53;1.20;;;12.20;44.40;;;;;;5001941;28;45833;-65
2023/10/28 08:33:17;;;;;;;6.70;1.57;;;12.30;42.80;;;;;;4983015;28;46444;-66
2023/10/28 08:35:42;;;;;;;2.50;1.40;;;12.30;43.80;;;;;;4982769;28;46403;-68
2023/10/28 08:38:08;;;;;;;3.67;1.23;;;12.40;43.60;;;;;;4981894;28;47073;-67
2023/10/28 08:40:34;;;;;;;2.40;1.07;;;12.50;43.30;;;;;;4983882;28;46448;-68
2023/10/28 08:43:00;;;;;;;1.97;0.97;;;12.60;41.60;;;;;;4983844;28;46455;-67
2023/10/28 08:45:27;;;;;;;6.20;1.10;;;12.70;42.70;;;;;;4983936;28;46635;-68
2023/10/28 08:47:53;;;;;;;2.00;0.90;;;12.70;42.40;;;;;;4984070;28;46393;-67
2023/10/28 08:50:28;;;;;;;3.30;1.50;;;12.80;41.90;;;;;;4983948;28;46397;-67
2023/10/28 08:53:00;;;;;;;3.07;1.10;;;12.80;40.20;;;;;;4983674;28;46567;-67
2023/10/28 08:55:25;;;;;;;9.00;1.30;;;12.70;40.10;;;;;;4983992;28;46432;-67
2023/10/28 08:57:52;;;;;;;2.53;0.90;;;12.80;42.20;;;;;;4983363;28;46424;-68
2023/10/28 09:00:20;;;;;;;7.77;1.00;;;12.90;41.10;;;;;;4983884;28;46424;-67
2023/10/28 09:02:49;;;;;;;4.53;1.10;;;12.90;38.90;;;;;;5002348;28;46412;-66
2023/10/28 09:05:15;;;;;;;7.43;1.20;;;12.90;40.00;;;;;;5004215;28;46429;-67
2023/10/28 09:07:43;;;;;;;3.33;1.20;;;13.10;40.00;;;;;;5002875;28;49096;-67
2023/10/28 09:10:10;;;;;;;5.83;1.13;;;13.20;39.70;;;;;;4994097;28;46663;-66
2023/10/28 09:12:36;;;;;;;3.40;1.03;;;13.30;38.20;;;;;;4990480;28;46442;-66
2023/10/28 09:15:03;;;;;;;4.50;1.10;;;13.40;39.40;;;;;;5007918;28;46544;-66
2023/10/28 09:17:29;;;;;;;1.80;0.90;;;13.40;39.20;;;;;;4992594;28;46858;-65
2023/10/28 09:19:56;;;;;;;8.50;1.33;;;13.30;38.10;;;;;;5002119;28;46431;-66
2023/10/28 09:22:23;;;;;;;3.30;1.00;;;13.30;36.80;;;;;;5000678;28;46833;-65
2023/10/28 09:24:52;;;;;;;2.67;1.00;;;13.30;37.90;;;;;;4999991;28;46424;-67
2023/10/28 09:27:18;;;;;;;13.20;1.00;;;13.40;37.90;;;;;;4990129;28;46973;-65
2023/10/28 09:29:44;;;;;;;4.70;1.00;;;13.50;37.70;;;;;;4994245;28;46443;-66
2023/10/28 09:32:10;;;;;;;3.10;0.90;;;13.60;36.10;;;;;;4984316;28;46546;-66
2023/10/28 09:34:38;;;;;;;2.80;1.00;;;13.70;35.90;;;;;;4999658;28;46425;-66
2023/10/28 09:37:05;;;;;;;5.10;1.53;;;13.70;36.80;;;;;;4999362;28;47028;-66
2023/10/28 09:39:35;;;;;;;3.13;1.00;;;13.80;36.60;;;;;;4998886;28;46250;-66
2023/10/28 09:42:02;;;;;;;3.00;1.07;;;13.90;35.70;;;;;;4992373;28;46450;-65
2023/10/28 09:44:28;;;;;;;3.20;1.03;;;13.90;36.60;;;;;;4991245;28;46317;-66
2023/10/28 09:47:05;;;;;;;2.27;1.00;;;13.90;36.30;;;;;;4990543;28;46317;-66
2023/10/28 09:49:32;;;;;;;4.30;1.00;;;13.90;35.30;;;;;;4999087;28;46834;-66
2023/10/28 09:52:10;;;;;;;3.03;1.07;;;13.90;33.00;;;;;;4988572;28;45839;-66
2023/10/28 09:54:36;;;;;;;2.97;1.20;;;13.90;33.80;;;;;;4998111;28;46411;-65
2023/10/28 09:57:03;;;;;;;2.80;1.10;;;13.90;33.80;;;;;;4998194;28;46439;-66
2023/10/28 09:59:35;;;;;;;4.03;1.23;;;14.10;34.00;;;;;;4997358;28;46337;-66
2023/10/28 10:02:26;;;;;;;6.27;1.13;;;14.10;30.70;;;;;;4991165;28;46491;-67
2023/10/28 10:04:59;;;;;;;3.03;1.07;;;14.10;31.60;;;;;;4992165;28;46379;-65
2023/10/28 10:07:25;;;;;;;8.50;1.30;;;14.10;32.50;;;;;;4999581;28;46664;-66
2023/10/28 10:09:51;;;;;;;3.70;0.90;;;14.10;31.70;;;;;;4996604;28;46301;-67
2023/10/28 10:12:17;;;;;;;2.87;1.07;;;14.00;29.90;;;;;;5002952;28;46299;-67
2023/10/28 10:14:47;;;;;;;4.03;1.30;;;14.10;31.00;;;;;;5003435;28;46643;-67
2023/10/28 10:17:24;;;;;;;2.53;1.00;;;14.20;30.20;;;;;;5003164;28;46451;-65
2023/10/28 10:19:50;;;;;;;2.70;1.00;;;14.30;30.30;;;;;;5002935;28;46381;-69
2023/10/28 10:22:19;;;;;;;7.50;2.13;;;14.50;29.50;;;;;;5002831;28;46119;-68
2023/10/28 10:24:49;;;;;;;2.37;0.90;;;14.50;30.00;;;;;;5003206;28;46390;-67
2023/10/28 10:27:15;;;;;;;2.57;1.03;;;14.60;29.40;;;;;;5002442;28;47608;-68
2023/10/28 10:29:41;;;;;;;7.20;1.27;;;14.60;29.30;;;;;;5002232;28;46369;-68
2023/10/28 10:32:17;;;;;;;3.00;1.20;;;14.70;28.10;;;;;;5002193;28;46580;-69
2023/10/28 10:34:45;;;;;;;3.00;1.00;;;14.60;28.50;;;;;;5023072;22;45814;-68
2023/10/28 10:37:24;;;;;;;3.27;1.10;;;14.50;29.30;;;;;;5020576;28;46850;-68
2023/10/28 10:39:51;;;;;;;5.73;1.30;;;14.70;29.50;;;;;;5022228;28;46277;-68
2023/10/28 10:42:17;;;;;;;5.63;1.10;;;14.90;28.80;;;;;;5022121;28;46495;-67
2023/10/28 10:44:43;;;;;;;3.40;1.17;;;14.90;29.60;;;;;;5022257;28;46594;-68
2023/10/28 10:47:11;;;;;;;3.23;1.27;;;15.10;29.80;;;;;;5021860;28;45880;-67
2023/10/28 10:49:41;;;;;;;8.50;1.00;;;15.00;28.60;;;;;;5022392;28;46742;-68
2023/10/28 10:52:08;;;;;;;3.00;1.20;;;14.90;28.70;;;;;;5026908;28;46291;-66
2023/10/28 10:54:38;;;;;;;4.87;1.67;;;14.90;29.30;;;;;;5041093;28;46295;-68
2023/10/28 10:57:04;;;;;;;4.03;1.13;;;;;;;;;;5041624;28;47023;-67
2023/10/28 10:59:32;;;;;;;6.00;1.43;;;15.00;28.40;;;;;;5042122;28;46339;-67
2023/10/28 11:02:00;;;;;;;4.60;1.20;;;15.30;27.80;;;;;;5041785;28;46403;-68
2023/10/28 11:04:26;;;;;;;3.80;1.10;;;15.30;28.60;;;;;;5042048;28;46688;-67
2023/10/28 11:06:52;;;;;;;4.93;1.20;;;15.40;28.30;;;;;;5041841;28;46631;-68
2023/10/28 11:09:18;;;;;;;8.27;1.10;;;15.50;28.20;;;;;;5042026;28;46484;-67
2023/10/28 11:11:44;;;;;;;5.67;1.93;;;15.50;27.20;;;;;;5042690;28;46379;-68
2023/10/28 11:14:10;;;;;;;2.70;1.13;;;15.30;25.90;;;;;;5042100;28;46344;-68
2023/10/28 11:16:38;;;;;;;10.07;1.60;;;15.40;26.90;;;;;;5023974;28;46857;-67
2023/10/28 11:19:04;;;;;;;3.40;1.07;;;15.60;27.20;;;;;;5020660;28;46420;-67
2023/10/28 11:21:31;;;;;;;7.13;1.00;;;15.50;26.40;;;;;;5021583;28;46805;-68
2023/10/28 11:23:57;;;;;;;5.03;1.13;;;15.30;25.00;;;;;;5020312;28;46450;-68
2023/10/28 11:26:25;;;;;;;3.70;1.00;;;15.20;25.90;;;;;;5021223;28;47233;-68
2023/10/28 11:28:50;;;;;;;9.20;1.40;;;15.10;26.20;;;;;;5021848;28;46329;-68
2023/10/28 11:31:20;;;;;;;3.70;1.40;;;15.00;25.90;;;;;;5021569;28;46383;-68
2023/10/28 11:33:48;;;;;;;3.00;1.47;;;15.00;25.60;;;;;;5021220;28;46503;-68
2023/10/28 11:36:16;;;;;;;9.53;1.50;;;14.90;26.60;;;;;;5021311;28;46327;-68
2023/10/28 11:38:43;;;;;;;4.93;1.10;;;14.90;26.60;;;;;;5020957;28;46613;-68
2023/10/28 11:41:09;;;;;;;9.00;1.43;;;14.90;26.10;;;;;;5021780;28;46336;-68
2023/10/28 11:43:36;;;;;;;6.67;1.30;;;14.80;23.10;;;;;;5021343;28;46506;-67
2023/10/28 11:46:02;;;;;;;8.20;1.43;;;14.80;24.30;;;;;;5021215;28;47654;-69
2023/10/28 11:48:28;;;;;;;2.30;1.10;;;14.90;23.80;;;;;;5022016;28;46508;-68
2023/10/28 11:50:54;;;;;;;2.80;1.10;;;14.80;23.00;;;;;;5021646;28;46492;-68
2023/10/28 11:53:27;;;;;;;4.10;1.27;;;14.80;22.00;;;;;;5020978;28;46614;-69
2023/10/28 11:55:54;;;;;;;3.40;1.10;;;14.70;22.50;;;;;;5021078;28;47027;-68
2023/10/28 11:58:22;;;;;;;4.47;1.30;;;14.80;22.10;;;;;;5021010;28;46747;-68
2023/10/28 12:00:53;;;;;;;3.63;1.00;;;14.80;23.10;;;;;;5021785;28;46415;-67
2023/10/28 12:03:21;;;;;;;7.73;1.83;;;15.00;22.00;;;;;;5022063;28;46507;-67
2023/10/28 12:05:47;;;;;;;6.90;1.43;;;15.00;22.60;;;;;;5021162;28;46560;-67
2023/10/28 12:08:13;;;;;;;4.77;1.27;;;15.00;22.80;;;;;;5020784;28;46494;-68
2023/10/28 12:10:43;;;;;;;5.97;1.40;;;15.00;22.70;;;;;;5021012;28;46452;-68
2023/10/28 12:13:18;;;;;;;3.50;1.27;;;15.10;21.70;;;;;;5021535;28;46423;-68
2023/10/28 12:15:44;;;;;;;3.90;1.53;;;15.10;22.80;;;;;;5021178;28;46438;-67
2023/10/28 12:18:10;;;;;;;4.17;1.40;;;15.10;23.20;;;;;;5020435;28;46623;-68
2023/10/28 12:20:36;;;;;;;7.90;1.20;;;15.10;23.50;;;;;;5017809;28;46415;-66
2023/10/28 12:23:02;;;;;;;6.47;1.47;;;15.20;21.70;;;;;;5010386;28;46627;-66
2023/10/28 12:25:29;;;;;;;6.23;1.33;;;15.20;22.70;;;;;;5009060;28;47089;-66
2023/10/28 12:27:54;;;;;;;5.17;1.27;;;15.30;22.70;;;;;;5009517;28;46466;-65
2023/10/28 12:30:20;;;;;;;4.50;1.50;;;15.30;21.10;;;;;;5010627;28;46443;-68
2023/10/28 12:32:47;;;;;;;4.43;1.53;;;15.20;20.80;;;;;;5009371;28;46390;-66
2023/10/28 12:35:16;;;;;;;16.33;1.73;;;15.20;21.80;;;;;;5014626;28;46751;-67
2023/10/28 12:37:41;;;;;;;6.87;1.47;;;15.20;22.00;;;;;;5010370;28;46424;-66
2023/10/28 12:40:09;;;;;;;7.60;1.47;;;15.20;22.20;;;;;;5009158;28;46363;-66
2023/10/28 12:42:35;;;;;;;5.47;1.30;;;15.30;21.60;;;;;;5008087;28;46506;-67
2023/10/28 12:45:05;;;;;;;9.90;1.60;;;15.30;22.10;;;;;;5009417;28;46291;-66
2023/10/28 12:47:31;;;;;;;4.50;1.30;;;15.40;21.70;;;;;;5009883;28;45815;-67
2023/10/28 12:49:56;;;;;;;4.50;1.50;;;15.30;21.40;;;;;;5007948;28;46449;-67
2023/10/28 12:52:22;;;;;;;5.73;1.40;;;15.40;21.40;;;;;;5009364;28;46398;-68
2023/10/28 12:54:48;;;;;;;11.17;1.70;;;15.40;22.40;;;;;;5008815;28;46967;-66
2023/10/28 12:57:14;;;;;;;3.73;1.50;;;15.60;22.20;;;;;;5007737;28;46647;-66